sensor_id;sensor_type;location;lat;lon;timestamp;P1;durP1;ratioP1;P2;durP2;ratioP2
13588;SDS011;6865;52.552;13.434;2022-12-07T00:01:15;12.93;;;8.17;;
13588;SDS011;6865;52.552;13.434;2022-12-07T00:03:46;12.40;;;7.63;;
13588;SDS011;6865;52.552;13.434;2022-12-07T00:06:14;11.70;;;7.47;;
13588;SDS011;6865;52.552;13.434;2022-12-07T00:08:42;11.77;;;7.83;;
13588;SDS011;6865;52.552;13.434;2022-12-07T00:13:38;10.63;;;7.10;;
13588;SDS011;6865;52.552;13.434;2022-12-07T00:16:06;13.90;;;8.00;;
13588;SDS011;6865;52.552;13.434;2022-12-07T00:18:35;11.37;;;7.73;;
13588;SDS011;6865;52.552;13.434;2022-12-07T00:21:03;15.20;;;8.50;;
13588;SDS011;6865;52.552;13.434;2022-12-07T00:23:38;11.07;;;7.37;;
13588;SDS011;6865;52.552;13.434;2022-12-07T00:26:06;12.73;;;8.10;;
13588;SDS011;6865;52.552;13.434;2022-12-07T00:28:34;10.33;;;7.07;;
13588;SDS011;6865;52.552;13.434;2022-12-07T00:31:04;10.27;;;7.23;;
13588;SDS011;6865;52.552;13.434;2022-12-07T00:33:33;9.30;;;6.90;;
13588;SDS011;6865;52.552;13.434;2022-12-07T00:36:00;11.53;;;6.83;;
13588;SDS011;6865;52.552;13.434;2022-12-07T00:38:29;9.63;;;7.03;;
13588;SDS011;6865;52.552;13.434;2022-12-07T00:41:03;12.70;;;7.57;;
13588;SDS011;6865;52.552;13.434;2022-12-07T00:43:31;21.47;;;13.97;;
13588;SDS011;6865;52.552;13.434;2022-12-07T00:45:58;9.77;;;7.07;;
13588;SDS011;6865;52.552;13.434;2022-12-07T00:48:25;11.20;;;7.57;;
13588;SDS011;6865;52.552;13.434;2022-12-07T00:50:52;12.03;;;7.70;;
13588;SDS011;6865;52.552;13.434;2022-12-07T00:53:18;11.97;;;7.90;;
13588;SDS011;6865;52.552;13.434;2022-12-07T00:55:45;12.23;;;7.87;;
13588;SDS011;6865;52.552;13.434;2022-12-07T00:58:12;13.70;;;8.57;;
13588;SDS011;6865;52.552;13.434;2022-12-07T01:00:39;10.00;;;7.40;;
13588;SDS011;6865;52.552;13.434;2022-12-07T01:03:08;10.50;;;7.20;;
13588;SDS011;6865;52.552;13.434;2022-12-07T01:05:36;11.07;;;7.53;;
13588;SDS011;6865;52.552;13.434;2022-12-07T01:08:03;10.90;;;7.27;;
13588;SDS011;6865;52.552;13.434;2022-12-07T01:10:30;9.73;;;7.20;;
13588;SDS011;6865;52.552;13.434;2022-12-07T01:12:58;11.27;;;7.20;;
13588;SDS011;6865;52.552;13.434;2022-12-07T01:15:25;9.53;;;7.17;;
13588;SDS011;6865;52.552;13.434;2022-12-07T01:17:52;9.67;;;7.40;;
13588;SDS011;6865;52.552;13.434;2022-12-07T01:20:20;10.23;;;7.07;;
13588;SDS011;6865;52.552;13.434;2022-12-07T01:22:47;10.60;;;7.23;;
13588;SDS011;6865;52.552;13.434;2022-12-07T01:25:14;11.17;;;7.30;;
13588;SDS011;6865;52.552;13.434;2022-12-07T01:27:41;10.73;;;7.07;;
13588;SDS011;6865;52.552;13.434;2022-12-07T01:30:07;10.77;;;7.23;;
13588;SDS011;6865;52.552;13.434;2022-12-07T01:32:36;8.80;;;6.60;;
13588;SDS011;6865;52.552;13.434;2022-12-07T01:35:02;10.03;;;6.67;;
13588;SDS011;6865;52.552;13.434;2022-12-07T01:37:33;10.23;;;6.93;;
13588;SDS011;6865;52.552;13.434;2022-12-07T01:40:04;9.17;;;6.83;;
13588;SDS011;6865;52.552;13.434;2022-12-07T01:42:33;8.80;;;6.37;;
13588;SDS011;6865;52.552;13.434;2022-12-07T01:45:31;9.87;;;6.00;;
13588;SDS011;6865;52.552;13.434;2022-12-07T01:48:05;8.93;;;5.60;;
13588;SDS011;6865;52.552;13.434;2022-12-07T01:50:35;7.43;;;6.10;;
13588;SDS011;6865;52.552;13.434;2022-12-07T01:53:04;8.33;;;5.77;;
13588;SDS011;6865;52.552;13.434;2022-12-07T01:55:36;8.77;;;6.17;;
13588;SDS011;6865;52.552;13.434;2022-12-07T01:58:06;7.60;;;5.47;;
13588;SDS011;6865;52.552;13.434;2022-12-07T02:00:33;7.17;;;5.40;;
13588;SDS011;6865;52.552;13.434;2022-12-07T02:03:01;7.20;;;5.40;;
13588;SDS011;6865;52.552;13.434;2022-12-07T02:05:32;7.27;;;5.20;;
13588;SDS011;6865;52.552;13.434;2022-12-07T02:08:01;6.97;;;5.40;;
13588;SDS011;6865;52.552;13.434;2022-12-07T02:10:29;7.37;;;5.33;;
13588;SDS011;6865;52.552;13.434;2022-12-07T02:12:58;8.60;;;5.53;;
13588;SDS011;6865;52.552;13.434;2022-12-07T02:18:25;6.77;;;5.20;;
13588;SDS011;6865;52.552;13.434;2022-12-07T02:21:04;6.60;;;4.97;;
13588;SDS011;6865;52.552;13.434;2022-12-07T02:23:55;6.87;;;5.07;;
13588;SDS011;6865;52.552;13.434;2022-12-07T02:29:35;7.80;;;5.20;;
13588;SDS011;6865;52.552;13.434;2022-12-07T02:32:16;7.13;;;5.33;;
13588;SDS011;6865;52.552;13.434;2022-12-07T02:35:07;6.70;;;4.90;;
13588;SDS011;6865;52.552;13.434;2022-12-07T02:38:00;7.60;;;5.17;;
13588;SDS011;6865;52.552;13.434;2022-12-07T02:40:43;8.30;;;5.10;;
13588;SDS011;6865;52.552;13.434;2022-12-07T02:43:26;7.07;;;5.07;;
13588;SDS011;6865;52.552;13.434;2022-12-07T02:45:56;7.77;;;5.27;;
13588;SDS011;6865;52.552;13.434;2022-12-07T02:48:27;7.87;;;5.37;;
13588;SDS011;6865;52.552;13.434;2022-12-07T02:50:54;6.87;;;5.50;;
13588;SDS011;6865;52.552;13.434;2022-12-07T02:53:27;10.20;;;6.00;;
13588;SDS011;6865;52.552;13.434;2022-12-07T03:02:12;8.13;;;5.40;;
13588;SDS011;6865;52.552;13.434;2022-12-07T03:11:06;8.03;;;5.97;;
13588;SDS011;6865;52.552;13.434;2022-12-07T03:13:48;8.57;;;6.27;;
13588;SDS011;6865;52.552;13.434;2022-12-07T03:16:27;7.40;;;5.73;;
13588;SDS011;6865;52.552;13.434;2022-12-07T03:19:01;8.07;;;6.20;;
13588;SDS011;6865;52.552;13.434;2022-12-07T03:21:34;8.80;;;6.40;;
13588;SDS011;6865;52.552;13.434;2022-12-07T03:24:07;10.13;;;7.00;;
13588;SDS011;6865;52.552;13.434;2022-12-07T03:26:39;10.17;;;7.10;;
13588;SDS011;6865;52.552;13.434;2022-12-07T03:29:12;10.23;;;7.23;;
13588;SDS011;6865;52.552;13.434;2022-12-07T03:31:47;10.13;;;7.00;;
13588;SDS011;6865;52.552;13.434;2022-12-07T03:34:29;10.30;;;6.80;;
13588;SDS011;6865;52.552;13.434;2022-12-07T03:37:01;10.90;;;6.90;;
13588;SDS011;6865;52.552;13.434;2022-12-07T03:42:32;9.97;;;7.10;;
13588;SDS011;6865;52.552;13.434;2022-12-07T03:45:00;11.07;;;7.60;;
13588;SDS011;6865;52.552;13.434;2022-12-07T03:47:36;11.30;;;7.40;;
13588;SDS011;6865;52.552;13.434;2022-12-07T03:50:22;11.27;;;7.60;;
13588;SDS011;6865;52.552;13.434;2022-12-07T03:53:23;10.13;;;7.23;;
13588;SDS011;6865;52.552;13.434;2022-12-07T03:55:57;11.17;;;7.87;;
13588;SDS011;6865;52.552;13.434;2022-12-07T03:58:25;12.23;;;8.23;;
13588;SDS011;6865;52.552;13.434;2022-12-07T04:00:51;13.00;;;8.23;;
13588;SDS011;6865;52.552;13.434;2022-12-07T04:03:18;12.47;;;8.30;;
13588;SDS011;6865;52.552;13.434;2022-12-07T04:05:45;13.43;;;8.90;;
13588;SDS011;6865;52.552;13.434;2022-12-07T04:08:11;12.40;;;8.40;;
13588;SDS011;6865;52.552;13.434;2022-12-07T04:10:38;12.17;;;8.37;;
13588;SDS011;6865;52.552;13.434;2022-12-07T04:13:05;11.53;;;8.43;;
13588;SDS011;6865;52.552;13.434;2022-12-07T04:15:31;13.53;;;8.57;;
13588;SDS011;6865;52.552;13.434;2022-12-07T04:17:58;13.40;;;8.77;;
13588;SDS011;6865;52.552;13.434;2022-12-07T04:20:25;13.57;;;9.23;;
13588;SDS011;6865;52.552;13.434;2022-12-07T04:22:51;12.67;;;8.60;;
13588;SDS011;6865;52.552;13.434;2022-12-07T04:25:18;13.63;;;9.57;;
13588;SDS011;6865;52.552;13.434;2022-12-07T04:27:45;12.87;;;8.77;;
13588;SDS011;6865;52.552;13.434;2022-12-07T04:30:11;14.93;;;9.57;;
13588;SDS011;6865;52.552;13.434;2022-12-07T04:32:38;14.07;;;9.07;;
13588;SDS011;6865;52.552;13.434;2022-12-07T04:35:05;12.20;;;8.77;;
13588;SDS011;6865;52.552;13.434;2022-12-07T04:37:32;12.47;;;8.93;;
13588;SDS011;6865;52.552;13.434;2022-12-07T04:39:59;13.47;;;9.80;;
13588;SDS011;6865;52.552;13.434;2022-12-07T04:42:26;14.37;;;9.90;;
13588;SDS011;6865;52.552;13.434;2022-12-07T04:44:53;14.43;;;10.10;;
13588;SDS011;6865;52.552;13.434;2022-12-07T04:47:19;14.53;;;10.07;;
13588;SDS011;6865;52.552;13.434;2022-12-07T04:49:46;12.83;;;9.10;;
13588;SDS011;6865;52.552;13.434;2022-12-07T04:52:13;14.67;;;10.47;;
13588;SDS011;6865;52.552;13.434;2022-12-07T04:54:39;13.97;;;9.87;;
13588;SDS011;6865;52.552;13.434;2022-12-07T04:57:06;16.33;;;10.50;;
13588;SDS011;6865;52.552;13.434;2022-12-07T04:59:32;15.47;;;10.23;;
13588;SDS011;6865;52.552;13.434;2022-12-07T05:01:59;17.93;;;11.73;;
13588;SDS011;6865;52.552;13.434;2022-12-07T05:04:26;15.73;;;11.07;;
13588;SDS011;6865;52.552;13.434;2022-12-07T05:06:52;17.57;;;11.80;;
13588;SDS011;6865;52.552;13.434;2022-12-07T05:09:19;17.40;;;10.97;;
13588;SDS011;6865;52.552;13.434;2022-12-07T05:11:45;17.87;;;11.93;;
13588;SDS011;6865;52.552;13.434;2022-12-07T05:14:13;17.07;;;11.23;;
13588;SDS011;6865;52.552;13.434;2022-12-07T05:16:45;17.90;;;12.10;;
13588;SDS011;6865;52.552;13.434;2022-12-07T05:19:14;19.20;;;12.67;;
13588;SDS011;6865;52.552;13.434;2022-12-07T05:21:41;16.70;;;11.57;;
13588;SDS011;6865;52.552;13.434;2022-12-07T05:24:09;19.60;;;13.07;;
13588;SDS011;6865;52.552;13.434;2022-12-07T05:26:37;20.47;;;13.20;;
13588;SDS011;6865;52.552;13.434;2022-12-07T05:29:04;23.07;;;13.33;;
13588;SDS011;6865;52.552;13.434;2022-12-07T05:31:31;20.83;;;13.67;;
13588;SDS011;6865;52.552;13.434;2022-12-07T05:33:58;22.83;;;13.97;;
13588;SDS011;6865;52.552;13.434;2022-12-07T05:36:24;21.40;;;13.03;;
13588;SDS011;6865;52.552;13.434;2022-12-07T05:38:51;22.80;;;14.93;;
13588;SDS011;6865;52.552;13.434;2022-12-07T05:41:18;23.40;;;13.93;;
13588;SDS011;6865;52.552;13.434;2022-12-07T05:44:04;22.57;;;14.07;;
13588;SDS011;6865;52.552;13.434;2022-12-07T05:46:31;23.40;;;15.37;;
13588;SDS011;6865;52.552;13.434;2022-12-07T05:48:58;25.07;;;14.43;;
13588;SDS011;6865;52.552;13.434;2022-12-07T05:51:24;26.67;;;16.00;;
13588;SDS011;6865;52.552;13.434;2022-12-07T05:53:51;24.73;;;15.87;;
13588;SDS011;6865;52.552;13.434;2022-12-07T05:56:18;23.80;;;15.03;;
13588;SDS011;6865;52.552;13.434;2022-12-07T05:58:44;27.03;;;15.80;;
13588;SDS011;6865;52.552;13.434;2022-12-07T06:01:30;26.20;;;15.57;;
13588;SDS011;6865;52.552;13.434;2022-12-07T06:03:56;29.37;;;16.10;;
13588;SDS011;6865;52.552;13.434;2022-12-07T06:06:23;26.70;;;15.73;;
13588;SDS011;6865;52.552;13.434;2022-12-07T06:08:50;26.97;;;16.10;;
13588;SDS011;6865;52.552;13.434;2022-12-07T06:11:16;24.13;;;14.67;;
13588;SDS011;6865;52.552;13.434;2022-12-07T06:14:02;28.70;;;16.13;;
13588;SDS011;6865;52.552;13.434;2022-12-07T06:16:28;28.20;;;16.47;;
13588;SDS011;6865;52.552;13.434;2022-12-07T06:18:55;26.47;;;15.90;;
13588;SDS011;6865;52.552;13.434;2022-12-07T06:21:22;26.90;;;15.70;;
13588;SDS011;6865;52.552;13.434;2022-12-07T06:23:48;29.57;;;17.10;;
13588;SDS011;6865;52.552;13.434;2022-12-07T06:26:15;30.17;;;17.37;;
13588;SDS011;6865;52.552;13.434;2022-12-07T06:28:42;31.30;;;16.30;;
13588;SDS011;6865;52.552;13.434;2022-12-07T06:31:08;26.63;;;15.77;;
13588;SDS011;6865;52.552;13.434;2022-12-07T06:33:39;27.10;;;15.47;;
13588;SDS011;6865;52.552;13.434;2022-12-07T06:36:06;24.83;;;15.40;;
13588;SDS011;6865;52.552;13.434;2022-12-07T06:38:33;22.70;;;13.47;;
13588;SDS011;6865;52.552;13.434;2022-12-07T06:41:00;29.10;;;14.23;;
13588;SDS011;6865;52.552;13.434;2022-12-07T06:43:26;21.43;;;14.10;;
13588;SDS011;6865;52.552;13.434;2022-12-07T06:45:53;21.47;;;14.20;;
13588;SDS011;6865;52.552;13.434;2022-12-07T06:48:20;25.33;;;15.27;;
13588;SDS011;6865;52.552;13.434;2022-12-07T06:50:47;25.93;;;15.07;;
13588;SDS011;6865;52.552;13.434;2022-12-07T06:53:20;26.53;;;15.73;;
13588;SDS011;6865;52.552;13.434;2022-12-07T06:55:46;28.87;;;16.27;;
13588;SDS011;6865;52.552;13.434;2022-12-07T06:58:13;27.83;;;15.10;;
13588;SDS011;6865;52.552;13.434;2022-12-07T07:00:39;25.17;;;15.40;;
13588;SDS011;6865;52.552;13.434;2022-12-07T07:03:06;24.60;;;15.63;;
13588;SDS011;6865;52.552;13.434;2022-12-07T07:05:33;25.77;;;14.93;;
13588;SDS011;6865;52.552;13.434;2022-12-07T07:08:00;25.97;;;14.67;;
13588;SDS011;6865;52.552;13.434;2022-12-07T07:10:46;25.77;;;14.77;;
13588;SDS011;6865;52.552;13.434;2022-12-07T07:13:13;23.83;;;14.97;;
13588;SDS011;6865;52.552;13.434;2022-12-07T07:15:39;27.07;;;15.70;;
13588;SDS011;6865;52.552;13.434;2022-12-07T07:18:06;28.13;;;16.10;;
13588;SDS011;6865;52.552;13.434;2022-12-07T07:20:33;28.00;;;15.40;;
13588;SDS011;6865;52.552;13.434;2022-12-07T07:23:00;25.23;;;14.73;;
13588;SDS011;6865;52.552;13.434;2022-12-07T07:25:26;27.07;;;15.57;;
13588;SDS011;6865;52.552;13.434;2022-12-07T07:27:53;24.37;;;14.87;;
13588;SDS011;6865;52.552;13.434;2022-12-07T07:30:20;26.47;;;15.93;;
13588;SDS011;6865;52.552;13.434;2022-12-07T07:32:46;23.63;;;14.20;;
13588;SDS011;6865;52.552;13.434;2022-12-07T07:35:13;26.00;;;14.60;;
13588;SDS011;6865;52.552;13.434;2022-12-07T07:37:40;23.37;;;14.30;;
13588;SDS011;6865;52.552;13.434;2022-12-07T07:40:07;23.47;;;14.33;;
13588;SDS011;6865;52.552;13.434;2022-12-07T07:42:35;24.47;;;14.30;;
13588;SDS011;6865;52.552;13.434;2022-12-07T07:45:01;23.43;;;12.97;;
13588;SDS011;6865;52.552;13.434;2022-12-07T07:47:28;17.97;;;12.27;;
13588;SDS011;6865;52.552;13.434;2022-12-07T07:49:55;20.50;;;12.33;;
13588;SDS011;6865;52.552;13.434;2022-12-07T07:52:22;17.50;;;10.67;;
13588;SDS011;6865;52.552;13.434;2022-12-07T07:54:48;18.07;;;11.27;;
13588;SDS011;6865;52.552;13.434;2022-12-07T07:57:15;20.30;;;11.33;;
13588;SDS011;6865;52.552;13.434;2022-12-07T07:59:43;15.83;;;10.87;;
13588;SDS011;6865;52.552;13.434;2022-12-07T08:02:13;14.60;;;10.40;;
13588;SDS011;6865;52.552;13.434;2022-12-07T08:04:44;17.43;;;10.13;;
13588;SDS011;6865;52.552;13.434;2022-12-07T08:07:12;15.37;;;8.53;;
13588;SDS011;6865;52.552;13.434;2022-12-07T08:09:40;13.00;;;8.67;;
13588;SDS011;6865;52.552;13.434;2022-12-07T08:12:07;10.07;;;7.73;;
13588;SDS011;6865;52.552;13.434;2022-12-07T08:14:34;13.73;;;8.33;;
13588;SDS011;6865;52.552;13.434;2022-12-07T08:17:00;13.40;;;7.67;;
13588;SDS011;6865;52.552;13.434;2022-12-07T08:19:27;13.97;;;7.37;;
13588;SDS011;6865;52.552;13.434;2022-12-07T08:21:54;10.23;;;7.60;;
13588;SDS011;6865;52.552;13.434;2022-12-07T08:24:22;10.40;;;6.63;;
13588;SDS011;6865;52.552;13.434;2022-12-07T08:26:49;10.27;;;6.40;;
13588;SDS011;6865;52.552;13.434;2022-12-07T08:29:16;12.53;;;6.67;;
13588;SDS011;6865;52.552;13.434;2022-12-07T08:31:43;7.20;;;5.70;;
13588;SDS011;6865;52.552;13.434;2022-12-07T08:34:10;9.00;;;6.30;;
13588;SDS011;6865;52.552;13.434;2022-12-07T08:36:37;7.47;;;5.40;;
13588;SDS011;6865;52.552;13.434;2022-12-07T08:39:04;6.50;;;5.20;;
13588;SDS011;6865;52.552;13.434;2022-12-07T08:41:50;7.30;;;5.13;;
13588;SDS011;6865;52.552;13.434;2022-12-07T08:44:17;7.80;;;5.20;;
13588;SDS011;6865;52.552;13.434;2022-12-07T08:46:45;8.13;;;4.63;;
13588;SDS011;6865;52.552;13.434;2022-12-07T08:49:16;6.17;;;4.40;;
13588;SDS011;6865;52.552;13.434;2022-12-07T08:51:48;4.10;;;3.70;;
13588;SDS011;6865;52.552;13.434;2022-12-07T08:54:16;5.70;;;4.17;;
13588;SDS011;6865;52.552;13.434;2022-12-07T08:56:44;4.97;;;4.00;;
13588;SDS011;6865;52.552;13.434;2022-12-07T08:59:13;5.07;;;3.80;;
13588;SDS011;6865;52.552;13.434;2022-12-07T09:01:41;5.53;;;3.37;;
13588;SDS011;6865;52.552;13.434;2022-12-07T09:04:08;4.00;;;2.80;;
13588;SDS011;6865;52.552;13.434;2022-12-07T09:06:35;3.67;;;3.00;;
13588;SDS011;6865;52.552;13.434;2022-12-07T09:09:02;4.10;;;3.30;;
13588;SDS011;6865;52.552;13.434;2022-12-07T09:11:29;4.87;;;3.07;;
13588;SDS011;6865;52.552;13.434;2022-12-07T09:13:56;3.70;;;2.90;;
13588;SDS011;6865;52.552;13.434;2022-12-07T09:16:22;5.73;;;3.17;;
13588;SDS011;6865;52.552;13.434;2022-12-07T09:18:49;4.30;;;2.77;;
13588;SDS011;6865;52.552;13.434;2022-12-07T09:21:16;4.53;;;2.47;;
13588;SDS011;6865;52.552;13.434;2022-12-07T09:23:42;4.23;;;2.67;;
13588;SDS011;6865;52.552;13.434;2022-12-07T09:26:09;3.17;;;2.20;;
13588;SDS011;6865;52.552;13.434;2022-12-07T09:28:36;3.90;;;2.60;;
13588;SDS011;6865;52.552;13.434;2022-12-07T09:31:03;2.97;;;2.33;;
13588;SDS011;6865;52.552;13.434;2022-12-07T09:33:54;3.67;;;2.07;;
13588;SDS011;6865;52.552;13.434;2022-12-07T09:36:22;2.00;;;1.80;;
13588;SDS011;6865;52.552;13.434;2022-12-07T09:38:49;2.27;;;2.00;;
13588;SDS011;6865;52.552;13.434;2022-12-07T09:41:16;3.10;;;2.23;;
13588;SDS011;6865;52.552;13.434;2022-12-07T09:43:42;3.77;;;2.43;;
13588;SDS011;6865;52.552;13.434;2022-12-07T09:46:13;3.67;;;2.10;;
13588;SDS011;6865;52.552;13.434;2022-12-07T09:48:43;2.43;;;1.80;;
13588;SDS011;6865;52.552;13.434;2022-12-07T09:51:15;2.47;;;2.20;;
13588;SDS011;6865;52.552;13.434;2022-12-07T09:53:49;2.57;;;2.20;;
13588;SDS011;6865;52.552;13.434;2022-12-07T09:56:17;3.10;;;2.10;;
13588;SDS011;6865;52.552;13.434;2022-12-07T09:58:45;2.90;;;2.30;;
13588;SDS011;6865;52.552;13.434;2022-12-07T10:01:16;3.10;;;1.60;;
13588;SDS011;6865;52.552;13.434;2022-12-07T10:03:48;2.77;;;2.23;;
13588;SDS011;6865;52.552;13.434;2022-12-07T10:06:18;3.40;;;1.90;;
13588;SDS011;6865;52.552;13.434;2022-12-07T10:08:44;3.00;;;1.77;;
13588;SDS011;6865;52.552;13.434;2022-12-07T10:11:11;2.43;;;1.93;;
13588;SDS011;6865;52.552;13.434;2022-12-07T10:13:41;1.63;;;1.50;;
13588;SDS011;6865;52.552;13.434;2022-12-07T10:18:50;3.60;;;1.90;;
13588;SDS011;6865;52.552;13.434;2022-12-07T10:21:18;2.03;;;1.63;;
13588;SDS011;6865;52.552;13.434;2022-12-07T10:26:34;2.50;;;1.67;;
13588;SDS011;6865;52.552;13.434;2022-12-07T10:29:24;2.67;;;1.80;;
13588;SDS011;6865;52.552;13.434;2022-12-07T10:31:56;3.17;;;2.63;;
13588;SDS011;6865;52.552;13.434;2022-12-07T10:34:32;2.57;;;2.10;;
13588;SDS011;6865;52.552;13.434;2022-12-07T10:39:42;2.43;;;1.90;;
13588;SDS011;6865;52.552;13.434;2022-12-07T10:47:44;2.70;;;2.00;;
13588;SDS011;6865;52.552;13.434;2022-12-07T10:50:47;3.07;;;2.07;;
13588;SDS011;6865;52.552;13.434;2022-12-07T10:56:25;4.00;;;2.00;;
13588;SDS011;6865;52.552;13.434;2022-12-07T11:01:54;3.53;;;2.60;;
13588;SDS011;6865;52.552;13.434;2022-12-07T11:10:12;3.43;;;2.80;;
13588;SDS011;6865;52.552;13.434;2022-12-07T11:12:48;3.40;;;2.70;;
13588;SDS011;6865;52.552;13.434;2022-12-07T11:15:30;3.10;;;2.73;;
13588;SDS011;6865;52.552;13.434;2022-12-07T11:18:41;4.43;;;3.00;;
13588;SDS011;6865;52.552;13.434;2022-12-07T11:21:30;5.17;;;2.87;;
13588;SDS011;6865;52.552;13.434;2022-12-07T11:24:16;3.17;;;2.40;;
13588;SDS011;6865;52.552;13.434;2022-12-07T11:29:16;3.87;;;3.00;;
13588;SDS011;6865;52.552;13.434;2022-12-07T11:35:00;4.33;;;3.10;;
13588;SDS011;6865;52.552;13.434;2022-12-07T11:37:41;3.93;;;2.80;;
13588;SDS011;6865;52.552;13.434;2022-12-07T11:40:25;6.40;;;3.17;;
13588;SDS011;6865;52.552;13.434;2022-12-07T11:43:00;4.43;;;2.77;;
13588;SDS011;6865;52.552;13.434;2022-12-07T11:45:50;4.87;;;2.97;;
13588;SDS011;6865;52.552;13.434;2022-12-07T11:48:28;4.53;;;3.00;;
13588;SDS011;6865;52.552;13.434;2022-12-07T11:51:13;4.50;;;3.10;;
13588;SDS011;6865;52.552;13.434;2022-12-07T11:53:58;4.30;;;3.03;;
13588;SDS011;6865;52.552;13.434;2022-12-07T11:56:48;4.43;;;3.30;;
13588;SDS011;6865;52.552;13.434;2022-12-07T11:59:23;5.00;;;3.30;;
13588;SDS011;6865;52.552;13.434;2022-12-07T12:02:02;6.87;;;3.60;;
13588;SDS011;6865;52.552;13.434;2022-12-07T12:07:45;10.33;;;3.73;;
13588;SDS011;6865;52.552;13.434;2022-12-07T12:10:51;6.00;;;3.70;;
13588;SDS011;6865;52.552;13.434;2022-12-07T12:19:55;5.17;;;3.53;;
13588;SDS011;6865;52.552;13.434;2022-12-07T12:22:34;6.70;;;3.57;;
13588;SDS011;6865;52.552;13.434;2022-12-07T12:25:11;4.73;;;3.07;;
13588;SDS011;6865;52.552;13.434;2022-12-07T12:27:54;7.73;;;3.50;;
13588;SDS011;6865;52.552;13.434;2022-12-07T12:30:29;6.63;;;3.50;;
13588;SDS011;6865;52.552;13.434;2022-12-07T12:33:12;6.07;;;3.57;;
13588;SDS011;6865;52.552;13.434;2022-12-07T12:36:16;6.33;;;3.70;;
13588;SDS011;6865;52.552;13.434;2022-12-07T12:39:07;8.17;;;3.30;;
13588;SDS011;6865;52.552;13.434;2022-12-07T12:46:49;5.63;;;2.80;;
13588;SDS011;6865;52.552;13.434;2022-12-07T12:51:47;6.07;;;2.80;;
13588;SDS011;6865;52.552;13.434;2022-12-07T12:54:18;6.00;;;2.90;;
13588;SDS011;6865;52.552;13.434;2022-12-07T12:57:45;5.40;;;2.83;;
13588;SDS011;6865;52.552;13.434;2022-12-07T13:00:20;6.70;;;2.93;;
13588;SDS011;6865;52.552;13.434;2022-12-07T13:02:49;5.90;;;2.63;;
13588;SDS011;6865;52.552;13.434;2022-12-07T13:05:20;6.10;;;2.57;;
13588;SDS011;6865;52.552;13.434;2022-12-07T13:10:24;5.90;;;2.80;;
13588;SDS011;6865;52.552;13.434;2022-12-07T13:13:03;6.63;;;2.70;;
13588;SDS011;6865;52.552;13.434;2022-12-07T13:15:37;5.33;;;2.80;;
13588;SDS011;6865;52.552;13.434;2022-12-07T13:21:38;5.80;;;2.83;;
13588;SDS011;6865;52.552;13.434;2022-12-07T13:23:55;5.73;;;2.90;;
13588;SDS011;6865;52.552;13.434;2022-12-07T13:31:36;6.70;;;3.13;;
13588;SDS011;6865;52.552;13.434;2022-12-07T13:34:29;4.87;;;2.80;;
13588;SDS011;6865;52.552;13.434;2022-12-07T13:37:14;8.80;;;2.70;;
13588;SDS011;6865;52.552;13.434;2022-12-07T13:40:37;7.17;;;2.37;;
13588;SDS011;6865;52.552;13.434;2022-12-07T13:42:58;4.17;;;2.50;;
13588;SDS011;6865;52.552;13.434;2022-12-07T13:45:27;6.43;;;2.47;;
13588;SDS011;6865;52.552;13.434;2022-12-07T13:50:52;5.67;;;2.50;;
13588;SDS011;6865;52.552;13.434;2022-12-07T13:53:22;5.87;;;2.13;;
13588;SDS011;6865;52.552;13.434;2022-12-07T13:55:49;5.33;;;2.17;;
13588;SDS011;6865;52.552;13.434;2022-12-07T13:58:19;6.00;;;2.30;;
13588;SDS011;6865;52.552;13.434;2022-12-07T14:00:46;6.70;;;2.10;;
13588;SDS011;6865;52.552;13.434;2022-12-07T14:05:40;5.43;;;2.10;;
13588;SDS011;6865;52.552;13.434;2022-12-07T14:16:23;4.40;;;2.10;;
13588;SDS011;6865;52.552;13.434;2022-12-07T14:18:54;5.27;;;1.80;;
13588;SDS011;6865;52.552;13.434;2022-12-07T14:21:22;4.73;;;2.10;;
13588;SDS011;6865;52.552;13.434;2022-12-07T14:26:41;7.67;;;2.63;;
13588;SDS011;6865;52.552;13.434;2022-12-07T14:29:18;8.33;;;2.50;;
13588;SDS011;6865;52.552;13.434;2022-12-07T14:31:52;5.23;;;2.23;;
13588;SDS011;6865;52.552;13.434;2022-12-07T14:34:20;6.10;;;2.30;;
13588;SDS011;6865;52.552;13.434;2022-12-07T14:36:47;10.13;;;2.63;;
13588;SDS011;6865;52.552;13.434;2022-12-07T14:39:14;6.10;;;2.50;;
13588;SDS011;6865;52.552;13.434;2022-12-07T14:41:40;4.17;;;2.53;;
13588;SDS011;6865;52.552;13.434;2022-12-07T14:44:16;3.40;;;2.00;;
13588;SDS011;6865;52.552;13.434;2022-12-07T14:46:50;7.00;;;2.27;;
13588;SDS011;6865;52.552;13.434;2022-12-07T14:49:37;8.00;;;2.50;;
13588;SDS011;6865;52.552;13.434;2022-12-07T14:52:05;6.47;;;2.63;;
13588;SDS011;6865;52.552;13.434;2022-12-07T14:55:01;5.83;;;2.50;;
13588;SDS011;6865;52.552;13.434;2022-12-07T14:57:28;4.80;;;2.57;;
13588;SDS011;6865;52.552;13.434;2022-12-07T14:59:54;5.43;;;2.70;;
13588;SDS011;6865;52.552;13.434;2022-12-07T15:02:21;6.33;;;3.00;;
13588;SDS011;6865;52.552;13.434;2022-12-07T15:04:47;5.93;;;2.80;;
13588;SDS011;6865;52.552;13.434;2022-12-07T15:07:16;9.47;;;2.97;;
13588;SDS011;6865;52.552;13.434;2022-12-07T15:09:46;9.00;;;2.60;;
13588;SDS011;6865;52.552;13.434;2022-12-07T15:12:13;5.67;;;3.00;;
13588;SDS011;6865;52.552;13.434;2022-12-07T15:14:40;8.10;;;3.07;;
13588;SDS011;6865;52.552;13.434;2022-12-07T15:17:08;7.73;;;3.10;;
13588;SDS011;6865;52.552;13.434;2022-12-07T15:19:53;11.17;;;3.40;;
13588;SDS011;6865;52.552;13.434;2022-12-07T15:22:19;8.03;;;2.50;;
13588;SDS011;6865;52.552;13.434;2022-12-07T15:24:46;6.97;;;2.30;;
13588;SDS011;6865;52.552;13.434;2022-12-07T15:27:12;5.27;;;2.20;;
13588;SDS011;6865;52.552;13.434;2022-12-07T15:29:39;6.70;;;2.50;;
13588;SDS011;6865;52.552;13.434;2022-12-07T15:32:06;5.87;;;2.10;;
13588;SDS011;6865;52.552;13.434;2022-12-07T15:34:32;7.00;;;2.50;;
13588;SDS011;6865;52.552;13.434;2022-12-07T15:37:05;6.97;;;3.00;;
13588;SDS011;6865;52.552;13.434;2022-12-07T15:39:33;5.77;;;2.30;;
13588;SDS011;6865;52.552;13.434;2022-12-07T15:42:03;8.30;;;2.47;;
13588;SDS011;6865;52.552;13.434;2022-12-07T15:44:29;5.27;;;2.20;;
13588;SDS011;6865;52.552;13.434;2022-12-07T15:47:15;6.27;;;2.37;;
13588;SDS011;6865;52.552;13.434;2022-12-07T15:49:42;7.90;;;2.53;;
13588;SDS011;6865;52.552;13.434;2022-12-07T15:52:09;7.03;;;3.03;;
13588;SDS011;6865;52.552;13.434;2022-12-07T15:54:35;9.27;;;2.50;;
13588;SDS011;6865;52.552;13.434;2022-12-07T15:57:02;5.40;;;2.53;;
13588;SDS011;6865;52.552;13.434;2022-12-07T15:59:28;7.67;;;2.43;;
13588;SDS011;6865;52.552;13.434;2022-12-07T16:01:55;5.83;;;2.00;;
13588;SDS011;6865;52.552;13.434;2022-12-07T16:04:22;5.37;;;2.50;;
13588;SDS011;6865;52.552;13.434;2022-12-07T16:06:49;9.80;;;4.33;;
13588;SDS011;6865;52.552;13.434;2022-12-07T16:09:17;5.40;;;2.70;;
13588;SDS011;6865;52.552;13.434;2022-12-07T16:11:44;8.40;;;2.70;;
13588;SDS011;6865;52.552;13.434;2022-12-07T16:14:11;6.93;;;2.30;;
13588;SDS011;6865;52.552;13.434;2022-12-07T16:16:37;7.47;;;2.50;;
13588;SDS011;6865;52.552;13.434;2022-12-07T16:19:06;5.37;;;2.40;;
13588;SDS011;6865;52.552;13.434;2022-12-07T16:21:34;4.20;;;2.10;;
13588;SDS011;6865;52.552;13.434;2022-12-07T16:24:01;6.03;;;2.40;;
13588;SDS011;6865;52.552;13.434;2022-12-07T16:26:29;5.57;;;2.70;;
13588;SDS011;6865;52.552;13.434;2022-12-07T16:28:56;4.40;;;2.10;;
13588;SDS011;6865;52.552;13.434;2022-12-07T16:31:23;5.83;;;2.20;;
13588;SDS011;6865;52.552;13.434;2022-12-07T16:33:53;5.60;;;2.30;;
13588;SDS011;6865;52.552;13.434;2022-12-07T16:36:22;6.53;;;2.03;;
13588;SDS011;6865;52.552;13.434;2022-12-07T16:39:11;7.40;;;2.30;;
13588;SDS011;6865;52.552;13.434;2022-12-07T16:41:37;8.03;;;3.70;;